sensor_id;sensor_type;location;lat;lon;timestamp;temperature;humidity
40249;DHT22;25969;49.970;11.062;2023-06-14T04:06:59;12.90;85.80
40249;DHT22;25969;49.970;11.062;2023-06-14T04:17:01;12.80;87.10
40249;DHT22;25969;49.970;11.062;2023-06-14T04:27:02;12.70;87.80
40249;DHT22;25969;49.970;11.062;2023-06-14T04:37:04;12.80;87.90
40249;DHT22;25969;49.970;11.062;2023-06-14T04:47:12;12.90;88.60
40249;DHT22;25969;49.970;11.062;2023-06-14T04:57:13;13.00;88.90
40249;DHT22;25969;49.970;11.062;2023-06-14T05:07:16;13.40;87.10
40249;DHT22;25969;49.970;11.062;2023-06-14T05:17:17;13.70;85.30
40249;DHT22;25969;49.970;11.062;2023-06-14T05:27:18;13.90;85.00
40249;DHT22;25969;49.970;11.062;2023-06-14T05:37:18;14.00;84.20
40249;DHT22;25969;49.970;11.062;2023-06-14T05:47:19;14.30;83.80
40249;DHT22;25969;49.970;11.062;2023-06-14T05:57:20;14.50;83.20
40249;DHT22;25969;49.970;11.062;2023-06-14T06:07:20;14.80;82.10
40249;DHT22;25969;49.970;11.062;2023-06-14T06:17:22;15.00;81.30
40249;DHT22;25969;49.970;11.062;2023-06-14T06:27:23;15.50;79.70
40249;DHT22;25969;49.970;11.062;2023-06-14T06:37:23;16.10;77.00
40249;DHT22;25969;49.970;11.062;2023-06-14T06:47:24;16.60;73.10
40249;DHT22;25969;49.970;11.062;2023-06-14T06:57:25;17.10;70.60
40249;DHT22;25969;49.970;11.062;2023-06-14T07:07:26;17.70;67.20
40249;DHT22;25969;49.970;11.062;2023-06-14T07:17:26;18.20;65.70
40249;DHT22;25969;49.970;11.062;2023-06-14T07:27:27;18.50;61.60
40249;DHT22;25969;49.970;11.062;2023-06-14T07:37:29;18.80;61.10
40249;DHT22;25969;49.970;11.062;2023-06-14T07:47:30;18.90;59.70
40249;DHT22;25969;49.970;11.062;2023-06-14T07:57:30;19.10;56.90
40249;DHT22;25969;49.970;11.062;2023-06-14T08:07:31;19.90;54.60
40249;DHT22;25969;49.970;11.062;2023-06-14T08:17:32;20.60;53.60
40249;DHT22;25969;49.970;11.062;2023-06-14T08:27:33;21.30;52.10
40249;DHT22;25969;49.970;11.062;2023-06-14T08:37:37;20.70;53.10
40249;DHT22;25969;49.970;11.062;2023-06-14T08:47:38;21.00;51.80
40249;DHT22;25969;49.970;11.062;2023-06-14T08:57:40;21.80;51.10
40249;DHT22;25969;49.970;11.062;2023-06-14T09:07:42;22.50;48.60
40249;DHT22;25969;49.970;11.062;2023-06-14T09:17:43;23.60;47.50
40249;DHT22;25969;49.970;11.062;2023-06-14T09:27:45;23.50;46.70
40249;DHT22;25969;49.970;11.062;2023-06-14T09:37:47;25.10;43.50
40249;DHT22;25969;49.970;11.062;2023-06-14T09:47:50;24.70;44.80
40249;DHT22;25969;49.970;11.062;2023-06-14T09:57:51;26.30;40.20
40249;DHT22;25969;49.970;11.062;2023-06-14T10:07:55;27.50;37.50
40249;DHT22;25969;49.970;11.062;2023-06-14T10:17:57;27.70;36.50
40249;DHT22;25969;49.970;11.062;2023-06-14T10:28:03;25.80;40.40
40249;DHT22;25969;49.970;11.062;2023-06-14T10:38:07;25.80;40.90
40249;DHT22;25969;49.970;11.062;2023-06-14T10:48:08;24.70;40.70
40249;DHT22;25969;49.970;11.062;2023-06-14T10:58:29;30.00;33.60
40249;DHT22;25969;49.970;11.062;2023-06-14T11:18:49;30.00;32.20
40249;DHT22;25969;49.970;11.062;2023-06-14T11:28:51;31.80;31.20
40249;DHT22;25969;49.970;11.062;2023-06-14T11:39:02;26.40;38.90
40249;DHT22;25969;49.970;11.062;2023-06-14T11:49:04;28.40;34.90
40249;DHT22;25969;49.970;11.062;2023-06-14T11:59:05;27.20;37.00
40249;DHT22;25969;49.970;11.062;2023-06-14T12:09:06;25.10;39.80
40249;DHT22;25969;49.970;11.062;2023-06-14T12:19:14;25.10;43.00
40249;DHT22;25969;49.970;11.062;2023-06-14T12:29:15;31.30;32.10
40249;DHT22;25969;49.970;11.062;2023-06-14T12:39:16;30.00;32.20
40249;DHT22;25969;49.970;11.062;2023-06-14T12:49:17;25.40;37.80
40249;DHT22;25969;49.970;11.062;2023-06-14T12:59:18;26.60;38.20
40249;DHT22;25969;49.970;11.062;2023-06-14T13:09:18;30.40;31.60
40249;DHT22;25969;49.970;11.062;2023-06-14T13:19:19;28.60;36.20
40249;DHT22;25969;49.970;11.062;2023-06-14T13:29:20;27.30;36.90
40249;DHT22;25969;49.970;11.062;2023-06-14T13:39:21;26.50;36.50
40249;DHT22;25969;49.970;11.062;2023-06-14T13:49:22;24.70;39.70
40249;DHT22;25969;49.970;11.062;2023-06-14T13:59:23;24.40;40.50
40249;DHT22;25969;49.970;11.062;2023-06-14T14:09:23;24.50;41.20
40249;DHT22;25969;49.970;11.062;2023-06-14T14:19:25;25.20;41.20
40249;DHT22;25969;49.970;11.062;2023-06-14T14:29:26;27.60;38.80
40249;DHT22;25969;49.970;11.062;2023-06-14T14:39:29;27.70;38.40
40249;DHT22;25969;49.970;11.062;2023-06-14T14:49:31;26.50;39.00
40249;DHT22;25969;49.970;11.062;2023-06-14T14:59:31;25.70;40.70
40249;DHT22;25969;49.970;11.062;2023-06-14T15:09:32;25.10;42.10
40249;DHT22;25969;49.970;11.062;2023-06-14T15:19:33;25.50;42.30
40249;DHT22;25969;49.970;11.062;2023-06-14T15:29:34;25.70;41.50
40249;DHT22;25969;49.970;11.062;2023-06-14T15:39:35;24.90;42.50
40249;DHT22;25969;49.970;11.062;2023-06-14T15:49:36;24.10;43.30
40249;DHT22;25969;49.970;11.062;2023-06-14T15:59:36;23.50;43.80
40249;DHT22;25969;49.970;11.062;2023-06-14T16:09:37;23.40;44.50
40249;DHT22;25969;49.970;11.062;2023-06-14T16:19:38;23.20;44.80
40249;DHT22;25969;49.970;11.062;2023-06-14T16:29:39;23.00;45.30
40249;DHT22;25969;49.970;11.062;2023-06-14T16:39:40;23.60;45.10
40249;DHT22;25969;49.970;11.062;2023-06-14T16:49:40;24.30;42.60
40249;DHT22;25969;49.970;11.062;2023-06-14T16:59:41;23.70;43.40
40249;DHT22;25969;49.970;11.062;2023-06-14T17:09:42;23.60;44.20
40249;DHT22;25969;49.970;11.062;2023-06-14T17:19:43;24.40;43.70
40249;DHT22;25969;49.970;11.062;2023-06-14T17:29:43;24.50;43.70
40249;DHT22;25969;49.970;11.062;2023-06-14T17:39:44;24.60;41.90
40249;DHT22;25969;49.970;11.062;2023-06-14T17:49:45;23.90;44.60
40249;DHT22;25969;49.970;11.062;2023-06-14T17:59:45;22.60;46.30
40249;DHT22;25969;49.970;11.062;2023-06-14T18:09:46;22.60;47.20
40249;DHT22;25969;49.970;11.062;2023-06-14T18:19:47;22.10;47.80
40249;DHT22;25969;49.970;11.062;2023-06-14T18:29:47;21.90;48.80
40249;DHT22;25969;49.970;11.062;2023-06-14T18:39:50;21.50;49.80
40249;DHT22;25969;49.970;11.062;2023-06-14T18:49:51;20.80;52.10
40249;DHT22;25969;49.970;11.062;2023-06-14T18:59:51;20.30;53.30
40249;DHT22;25969;49.970;11.062;2023-06-14T19:09:52;19.80;53.80
40249;DHT22;25969;49.970;11.062;2023-06-14T19:19:53;19.50;54.70
40249;DHT22;25969;49.970;11.062;2023-06-14T19:29:53;19.00;55.60
40249;DHT22;25969;49.970;11.062;2023-06-14T19:39:54;18.50;56.50
40249;DHT22;25969;49.970;11.062;2023-06-14T19:49:54;18.30;57.60
40249;DHT22;25969;49.970;11.062;2023-06-14T19:59:57;17.90;57.70
40249;DHT22;25969;49.970;11.062;2023-06-14T20:09:58;17.50;58.50
40249;DHT22;25969;49.970;11.062;2023-06-14T20:19:58;16.90;61.40
40249;DHT22;25969;49.970;11.062;2023-06-14T20:29:59;16.60;61.70
40249;DHT22;25969;49.970;11.062;2023-06-14T20:40:01;16.60;62.30
40249;DHT22;25969;49.970;11.062;2023-06-14T20:50:08;16.50;63.90
40249;DHT22;25969;49.970;11.062;2023-06-14T21:00:11;16.40;64.50
40249;DHT22;25969;49.970;11.062;2023-06-14T21:10:13;16.10;65.80
40249;DHT22;25969;49.970;11.062;2023-06-14T21:20:13;16.10;66.50
40249;DHT22;25969;49.970;11.062;2023-06-14T21:30:14;15.90;67.90
40249;DHT22;25969;49.970;11.062;2023-06-14T21:40:16;15.70;68.80
40249;DHT22;25969;49.970;11.062;2023-06-14T21:50:18;15.60;70.40
